sensor_id;sensor_type;location;lat;lon;timestamp;temperature;humidity
56076;DHT22;41951;49.022;12.066;2023-04-24T00:02:04;12.20;99.90
56076;DHT22;41951;49.022;12.066;2023-04-24T00:04:31;12.30;99.90
56076;DHT22;41951;49.022;12.066;2023-04-24T00:06:57;12.30;99.90
56076;DHT22;41951;49.022;12.066;2023-04-24T00:09:25;12.40;99.90
56076;DHT22;41951;49.022;12.066;2023-04-24T00:11:52;12.30;99.90
56076;DHT22;41951;49.022;12.066;2023-04-24T00:14:17;12.40;99.90
56076;DHT22;41951;49.022;12.066;2023-04-24T00:16:43;12.40;99.90
56076;DHT22;41951;49.022;12.066;2023-04-24T00:19:09;12.40;99.90
56076;DHT22;41951;49.022;12.066;2023-04-24T00:21:34;12.40;99.90
56076;DHT22;41951;49.022;12.066;2023-04-24T00:24:00;12.50;99.90
56076;DHT22;41951;49.022;12.066;2023-04-24T00:26:25;12.40;99.90
56076;DHT22;41951;49.022;12.066;2023-04-24T00:28:51;12.40;99.90
56076;DHT22;41951;49.022;12.066;2023-04-24T00:31:17;12.40;99.90
56076;DHT22;41951;49.022;12.066;2023-04-24T00:33:42;12.40;99.90
56076;DHT22;41951;49.022;12.066;2023-04-24T00:36:08;12.40;99.90
56076;DHT22;41951;49.022;12.066;2023-04-24T00:38:33;12.40;99.90
56076;DHT22;41951;49.022;12.066;2023-04-24T00:40:59;12.50;99.90
56076;DHT22;41951;49.022;12.066;2023-04-24T00:43:25;12.40;99.90
56076;DHT22;41951;49.022;12.066;2023-04-24T00:45:50;12.30;99.90
56076;DHT22;41951;49.022;12.066;2023-04-24T00:48:16;12.30;99.90
56076;DHT22;41951;49.022;12.066;2023-04-24T00:50:42;12.20;99.90
56076;DHT22;41951;49.022;12.066;2023-04-24T00:53:07;12.20;99.90
56076;DHT22;41951;49.022;12.066;2023-04-24T00:55:33;12.30;99.90
56076;DHT22;41951;49.022;12.066;2023-04-24T00:57:59;12.30;99.90
56076;DHT22;41951;49.022;12.066;2023-04-24T01:00:25;12.40;99.90
56076;DHT22;41951;49.022;12.066;2023-04-24T01:02:51;12.40;99.90
56076;DHT22;41951;49.022;12.066;2023-04-24T01:05:17;12.40;99.90
56076;DHT22;41951;49.022;12.066;2023-04-24T01:07:45;12.40;99.90
56076;DHT22;41951;49.022;12.066;2023-04-24T01:10:14;12.30;99.90
56076;DHT22;41951;49.022;12.066;2023-04-24T01:12:40;12.30;99.90
56076;DHT22;41951;49.022;12.066;2023-04-24T01:15:06;12.40;99.90
56076;DHT22;41951;49.022;12.066;2023-04-24T01:17:32;12.20;99.90
56076;DHT22;41951;49.022;12.066;2023-04-24T01:19:59;12.30;99.90
56076;DHT22;41951;49.022;12.066;2023-04-24T01:22:25;12.20;99.90
56076;DHT22;41951;49.022;12.066;2023-04-24T01:24:52;12.10;99.90
56076;DHT22;41951;49.022;12.066;2023-04-24T01:27:18;12.10;99.90
56076;DHT22;41951;49.022;12.066;2023-04-24T01:29:44;12.20;99.90
56076;DHT22;41951;49.022;12.066;2023-04-24T01:32:10;12.20;99.90
56076;DHT22;41951;49.022;12.066;2023-04-24T01:34:37;12.30;99.90
56076;DHT22;41951;49.022;12.066;2023-04-24T01:37:02;12.30;99.90
56076;DHT22;41951;49.022;12.066;2023-04-24T01:39:28;12.30;99.90
56076;DHT22;41951;49.022;12.066;2023-04-24T01:41:54;12.30;99.90
56076;DHT22;41951;49.022;12.066;2023-04-24T01:44:21;12.40;99.90
56076;DHT22;41951;49.022;12.066;2023-04-24T01:46:47;12.30;99.90
56076;DHT22;41951;49.022;12.066;2023-04-24T01:49:13;12.30;99.90
56076;DHT22;41951;49.022;12.066;2023-04-24T01:51:38;12.40;99.90
56076;DHT22;41951;49.022;12.066;2023-04-24T01:54:04;12.40;99.90
56076;DHT22;41951;49.022;12.066;2023-04-24T01:56:33;12.40;99.90
56076;DHT22;41951;49.022;12.066;2023-04-24T01:59:00;12.30;99.90
56076;DHT22;41951;49.022;12.066;2023-04-24T02:01:25;12.30;99.90
56076;DHT22;41951;49.022;12.066;2023-04-24T02:03:51;12.30;99.90
56076;DHT22;41951;49.022;12.066;2023-04-24T02:06:17;12.20;99.90
56076;DHT22;41951;49.022;12.066;2023-04-24T02:08:42;12.20;99.90
56076;DHT22;41951;49.022;12.066;2023-04-24T02:11:11;12.20;99.90
56076;DHT22;41951;49.022;12.066;2023-04-24T02:13:36;12.30;99.90
56076;DHT22;41951;49.022;12.066;2023-04-24T02:16:02;12.30;99.90
56076;DHT22;41951;49.022;12.066;2023-04-24T02:18:27;12.30;99.90
56076;DHT22;41951;49.022;12.066;2023-04-24T02:20:53;12.30;99.90
56076;DHT22;41951;49.022;12.066;2023-04-24T02:23:19;12.30;99.90
56076;DHT22;41951;49.022;12.066;2023-04-24T02:25:44;12.20;99.90
56076;DHT22;41951;49.022;12.066;2023-04-24T02:28:11;12.20;99.90
56076;DHT22;41951;49.022;12.066;2023-04-24T02:30:36;12.20;99.90
56076;DHT22;41951;49.022;12.066;2023-04-24T02:33:02;12.20;99.90
56076;DHT22;41951;49.022;12.066;2023-04-24T02:35:28;12.10;99.90
56076;DHT22;41951;49.022;12.066;2023-04-24T02:37:54;12.10;99.90
56076;DHT22;41951;49.022;12.066;2023-04-24T02:40:19;12.20;99.90
56076;DHT22;41951;49.022;12.066;2023-04-24T02:42:45;12.20;99.90
56076;DHT22;41951;49.022;12.066;2023-04-24T02:45:11;12.20;99.90
56076;DHT22;41951;49.022;12.066;2023-04-24T02:47:36;12.20;99.90
56076;DHT22;41951;49.022;12.066;2023-04-24T02:50:02;12.10;99.90
56076;DHT22;41951;49.022;12.066;2023-04-24T02:52:28;12.20;99.90
56076;DHT22;41951;49.022;12.066;2023-04-24T02:54:54;12.20;99.90
56076;DHT22;41951;49.022;12.066;2023-04-24T02:57:19;12.20;99.90
56076;DHT22;41951;49.022;12.066;2023-04-24T02:59:45;12.20;99.90
56076;DHT22;41951;49.022;12.066;2023-04-24T03:02:10;12.20;99.90
56076;DHT22;41951;49.022;12.066;2023-04-24T03:04:36;12.20;99.90
56076;DHT22;41951;49.022;12.066;2023-04-24T03:07:02;12.20;99.90
56076;DHT22;41951;49.022;12.066;2023-04-24T03:09:27;12.20;99.90
56076;DHT22;41951;49.022;12.066;2023-04-24T03:11:53;12.20;99.90
56076;DHT22;41951;49.022;12.066;2023-04-24T03:14:18;12.10;99.90
56076;DHT22;41951;49.022;12.066;2023-04-24T03:16:44;12.00;99.90
56076;DHT22;41951;49.022;12.066;2023-04-24T03:19:10;12.00;99.90
56076;DHT22;41951;49.022;12.066;2023-04-24T03:21:35;12.00;99.90
56076;DHT22;41951;49.022;12.066;2023-04-24T03:24:08;12.00;99.90
56076;DHT22;41951;49.022;12.066;2023-04-24T03:26:35;11.90;99.90
56076;DHT22;41951;49.022;12.066;2023-04-24T03:29:01;11.90;99.90
56076;DHT22;41951;49.022;12.066;2023-04-24T03:31:26;11.90;99.90
56076;DHT22;41951;49.022;12.066;2023-04-24T03:33:52;11.90;99.90
56076;DHT22;41951;49.022;12.066;2023-04-24T03:36:17;11.90;99.90
56076;DHT22;41951;49.022;12.066;2023-04-24T03:38:44;11.90;99.90
56076;DHT22;41951;49.022;12.066;2023-04-24T03:41:10;11.80;99.90
56076;DHT22;41951;49.022;12.066;2023-04-24T03:43:36;11.80;99.90
56076;DHT22;41951;49.022;12.066;2023-04-24T03:46:02;11.80;99.90
56076;DHT22;41951;49.022;12.066;2023-04-24T03:48:28;11.80;99.90
56076;DHT22;41951;49.022;12.066;2023-04-24T03:50:53;11.80;99.90
56076;DHT22;41951;49.022;12.066;2023-04-24T03:53:19;11.80;99.90
56076;DHT22;41951;49.022;12.066;2023-04-24T03:55:45;11.70;99.90
56076;DHT22;41951;49.022;12.066;2023-04-24T03:58:11;11.70;99.90
56076;DHT22;41951;49.022;12.066;2023-04-24T04:00:37;11.70;99.90
56076;DHT22;41951;49.022;12.066;2023-04-24T04:03:03;11.70;99.90
56076;DHT22;41951;49.022;12.066;2023-04-24T04:05:28;11.70;99.90
56076;DHT22;41951;49.022;12.066;2023-04-24T04:07:54;11.70;99.90
56076;DHT22;41951;49.022;12.066;2023-04-24T04:10:20;11.70;99.90
56076;DHT22;41951;49.022;12.066;2023-04-24T04:12:46;11.70;99.90
56076;DHT22;41951;49.022;12.066;2023-04-24T04:15:11;11.60;99.90
56076;DHT22;41951;49.022;12.066;2023-04-24T04:17:37;11.50;99.90
56076;DHT22;41951;49.022;12.066;2023-04-24T04:20:04;11.50;99.90
56076;DHT22;41951;49.022;12.066;2023-04-24T04:22:34;11.60;99.90
56076;DHT22;41951;49.022;12.066;2023-04-24T04:25:00;11.60;99.90
56076;DHT22;41951;49.022;12.066;2023-04-24T04:27:25;11.60;99.90
56076;DHT22;41951;49.022;12.066;2023-04-24T04:29:51;11.60;99.90
56076;DHT22;41951;49.022;12.066;2023-04-24T04:32:17;11.60;99.90
56076;DHT22;41951;49.022;12.066;2023-04-24T04:34:43;11.50;99.90
56076;DHT22;41951;49.022;12.066;2023-04-24T04:37:11;11.50;99.90
56076;DHT22;41951;49.022;12.066;2023-04-24T04:39:38;11.60;99.90
56076;DHT22;41951;49.022;12.066;2023-04-24T04:42:03;11.60;99.90
56076;DHT22;41951;49.022;12.066;2023-04-24T04:44:29;11.50;99.90
56076;DHT22;41951;49.022;12.066;2023-04-24T04:46:56;11.50;99.90
56076;DHT22;41951;49.022;12.066;2023-04-24T04:49:22;11.50;99.90
56076;DHT22;41951;49.022;12.066;2023-04-24T04:51:49;11.50;99.90
56076;DHT22;41951;49.022;12.066;2023-04-24T04:54:16;11.40;99.90
56076;DHT22;41951;49.022;12.066;2023-04-24T04:56:41;11.50;99.90
56076;DHT22;41951;49.022;12.066;2023-04-24T04:59:07;11.50;99.90
56076;DHT22;41951;49.022;12.066;2023-04-24T05:01:32;11.40;99.90
56076;DHT22;41951;49.022;12.066;2023-04-24T05:03:58;11.50;99.90
56076;DHT22;41951;49.022;12.066;2023-04-24T05:06:24;11.50;99.90
56076;DHT22;41951;49.022;12.066;2023-04-24T05:08:50;11.60;99.90
56076;DHT22;41951;49.022;12.066;2023-04-24T05:11:16;11.60;99.90
56076;DHT22;41951;49.022;12.066;2023-04-24T05:13:42;11.50;99.90
56076;DHT22;41951;49.022;12.066;2023-04-24T05:16:07;11.50;99.90
56076;DHT22;41951;49.022;12.066;2023-04-24T05:18:33;11.50;99.90
56076;DHT22;41951;49.022;12.066;2023-04-24T05:20:58;11.50;99.90
56076;DHT22;41951;49.022;12.066;2023-04-24T05:23:24;11.60;99.90
56076;DHT22;41951;49.022;12.066;2023-04-24T05:25:49;11.60;99.90
56076;DHT22;41951;49.022;12.066;2023-04-24T05:28:15;11.70;99.90
56076;DHT22;41951;49.022;12.066;2023-04-24T05:30:40;11.50;99.90
56076;DHT22;41951;49.022;12.066;2023-04-24T05:33:06;11.60;99.90
56076;DHT22;41951;49.022;12.066;2023-04-24T05:35:32;11.60;99.90
56076;DHT22;41951;49.022;12.066;2023-04-24T05:37:57;11.70;99.90
56076;DHT22;41951;49.022;12.066;2023-04-24T05:40:23;11.60;99.90
56076;DHT22;41951;49.022;12.066;2023-04-24T05:42:48;11.70;99.90
56076;DHT22;41951;49.022;12.066;2023-04-24T05:45:14;11.60;99.90
56076;DHT22;41951;49.022;12.066;2023-04-24T05:47:42;11.70;99.90
56076;DHT22;41951;49.022;12.066;2023-04-24T05:50:09;11.70;99.90
56076;DHT22;41951;49.022;12.066;2023-04-24T05:52:35;11.70;99.90
56076;DHT22;41951;49.022;12.066;2023-04-24T05:55:01;11.60;99.90
56076;DHT22;41951;49.022;12.066;2023-04-24T05:57:26;11.60;99.90
56076;DHT22;41951;49.022;12.066;2023-04-24T05:59:52;11.70;99.90
56076;DHT22;41951;49.022;12.066;2023-04-24T06:02:18;11.70;99.90
56076;DHT22;41951;49.022;12.066;2023-04-24T06:04:44;11.80;99.90
56076;DHT22;41951;49.022;12.066;2023-04-24T06:07:10;11.70;99.90
56076;DHT22;41951;49.022;12.066;2023-04-24T06:09:36;11.70;99.90
56076;DHT22;41951;49.022;12.066;2023-04-24T06:12:02;11.70;99.90
56076;DHT22;41951;49.022;12.066;2023-04-24T06:14:28;11.70;99.90
56076;DHT22;41951;49.022;12.066;2023-04-24T06:16:53;11.70;99.90
56076;DHT22;41951;49.022;12.066;2023-04-24T06:19:19;11.70;99.90
56076;DHT22;41951;49.022;12.066;2023-04-24T06:21:44;11.60;99.90
56076;DHT22;41951;49.022;12.066;2023-04-24T06:24:10;11.60;99.90
56076;DHT22;41951;49.022;12.066;2023-04-24T06:26:36;11.70;99.90
56076;DHT22;41951;49.022;12.066;2023-04-24T06:29:01;11.70;99.90
56076;DHT22;41951;49.022;12.066;2023-04-24T06:31:27;11.70;99.90
56076;DHT22;41951;49.022;12.066;2023-04-24T06:33:53;11.70;99.90
56076;DHT22;41951;49.022;12.066;2023-04-24T06:36:19;11.70;99.90
56076;DHT22;41951;49.022;12.066;2023-04-24T06:38:45;11.80;99.90
56076;DHT22;41951;49.022;12.066;2023-04-24T06:41:10;11.90;99.90
56076;DHT22;41951;49.022;12.066;2023-04-24T06:43:36;11.90;99.90
56076;DHT22;41951;49.022;12.066;2023-04-24T06:46:02;12.00;99.90
56076;DHT22;41951;49.022;12.066;2023-04-24T06:48:28;12.00;99.90
56076;DHT22;41951;49.022;12.066;2023-04-24T06:50:54;12.00;99.90
56076;DHT22;41951;49.022;12.066;2023-04-24T06:53:20;11.90;99.90
56076;DHT22;41951;49.022;12.066;2023-04-24T06:55:46;12.00;99.90
56076;DHT22;41951;49.022;12.066;2023-04-24T06:58:12;12.10;99.90
56076;DHT22;41951;49.022;12.066;2023-04-24T07:00:38;12.10;99.90
56076;DHT22;41951;49.022;12.066;2023-04-24T07:03:03;13.10;99.90
56076;DHT22;41951;49.022;12.066;2023-04-24T07:05:31;12.10;99.90
56076;DHT22;41951;49.022;12.066;2023-04-24T07:07:56;12.10;99.90
56076;DHT22;41951;49.022;12.066;2023-04-24T07:10:23;12.20;99.90
56076;DHT22;41951;49.022;12.066;2023-04-24T07:12:49;12.30;99.90
56076;DHT22;41951;49.022;12.066;2023-04-24T07:15:15;12.20;99.90
56076;DHT22;41951;49.022;12.066;2023-04-24T07:17:41;12.30;99.90
56076;DHT22;41951;49.022;12.066;2023-04-24T07:20:10;12.30;99.90
56076;DHT22;41951;49.022;12.066;2023-04-24T07:22:37;12.20;99.90
56076;DHT22;41951;49.022;12.066;2023-04-24T07:25:03;12.10;99.90
56076;DHT22;41951;49.022;12.066;2023-04-24T07:27:28;12.10;99.90
56076;DHT22;41951;49.022;12.066;2023-04-24T07:29:54;12.10;99.90
56076;DHT22;41951;49.022;12.066;2023-04-24T07:32:20;12.30;99.90
56076;DHT22;41951;49.022;12.066;2023-04-24T07:34:45;12.40;99.90
56076;DHT22;41951;49.022;12.066;2023-04-24T07:37:11;12.50;99.90
56076;DHT22;41951;49.022;12.066;2023-04-24T07:39:37;12.50;99.90
56076;DHT22;41951;49.022;12.066;2023-04-24T07:42:02;12.40;99.90
56076;DHT22;41951;49.022;12.066;2023-04-24T07:44:29;12.50;99.90
56076;DHT22;41951;49.022;12.066;2023-04-24T07:46:55;12.70;99.90
56076;DHT22;41951;49.022;12.066;2023-04-24T07:49:20;12.70;99.90
56076;DHT22;41951;49.022;12.066;2023-04-24T07:51:46;12.80;99.90
56076;DHT22;41951;49.022;12.066;2023-04-24T07:54:12;12.80;99.90
56076;DHT22;41951;49.022;12.066;2023-04-24T07:56:37;12.80;99.90
56076;DHT22;41951;49.022;12.066;2023-04-24T07:59:07;12.90;99.90
56076;DHT22;41951;49.022;12.066;2023-04-24T08:01:32;12.90;99.90
56076;DHT22;41951;49.022;12.066;2023-04-24T08:03:58;13.00;99.90
56076;DHT22;41951;49.022;12.066;2023-04-24T08:06:24;13.00;99.90
56076;DHT22;41951;49.022;12.066;2023-04-24T08:08:51;13.00;99.90
56076;DHT22;41951;49.022;12.066;2023-04-24T08:11:16;13.20;99.90
56076;DHT22;41951;49.022;12.066;2023-04-24T08:13:42;13.20;99.90
56076;DHT22;41951;49.022;12.066;2023-04-24T08:16:08;13.30;99.90
56076;DHT22;41951;49.022;12.066;2023-04-24T08:18:33;13.60;99.90
56076;DHT22;41951;49.022;12.066;2023-04-24T08:21:01;13.70;99.90
56076;DHT22;41951;49.022;12.066;2023-04-24T08:23:27;13.80;99.90
56076;DHT22;41951;49.022;12.066;2023-04-24T08:25:52;13.90;99.90
56076;DHT22;41951;49.022;12.066;2023-04-24T08:28:18;13.90;99.90
56076;DHT22;41951;49.022;12.066;2023-04-24T08:30:46;13.80;99.90
56076;DHT22;41951;49.022;12.066;2023-04-24T08:33:13;13.50;99.90
56076;DHT22;41951;49.022;12.066;2023-04-24T08:35:38;13.10;99.90
56076;DHT22;41951;49.022;12.066;2023-04-24T08:38:04;12.70;99.90
56076;DHT22;41951;49.022;12.066;2023-04-24T08:40:34;12.30;99.90
56076;DHT22;41951;49.022;12.066;2023-04-24T08:43:00;12.10;99.90
56076;DHT22;41951;49.022;12.066;2023-04-24T08:45:26;11.90;99.90
56076;DHT22;41951;49.022;12.066;2023-04-24T08:47:55;11.70;99.90
56076;DHT22;41951;49.022;12.066;2023-04-24T08:50:21;11.60;99.90
56076;DHT22;41951;49.022;12.066;2023-04-24T08:52:49;11.40;99.90
56076;DHT22;41951;49.022;12.066;2023-04-24T08:55:16;11.50;99.90
56076;DHT22;41951;49.022;12.066;2023-04-24T08:57:44;11.50;99.90
56076;DHT22;41951;49.022;12.066;2023-04-24T09:00:11;12.60;99.90
56076;DHT22;41951;49.022;12.066;2023-04-24T09:02:38;11.70;99.90
56076;DHT22;41951;49.022;12.066;2023-04-24T09:05:06;11.80;99.90
56076;DHT22;41951;49.022;12.066;2023-04-24T09:07:35;11.80;99.90
56076;DHT22;41951;49.022;12.066;2023-04-24T09:10:03;12.00;99.90
56076;DHT22;41951;49.022;12.066;2023-04-24T09:12:28;12.10;99.90
56076;DHT22;41951;49.022;12.066;2023-04-24T09:14:54;12.10;99.90
56076;DHT22;41951;49.022;12.066;2023-04-24T09:17:20;12.10;99.90
56076;DHT22;41951;49.022;12.066;2023-04-24T09:19:48;12.30;99.90
56076;DHT22;41951;49.022;12.066;2023-04-24T09:22:14;12.30;99.90
56076;DHT22;41951;49.022;12.066;2023-04-24T09:24:40;12.40;99.90
56076;DHT22;41951;49.022;12.066;2023-04-24T09:27:06;12.60;99.90
56076;DHT22;41951;49.022;12.066;2023-04-24T09:29:32;12.80;99.90
56076;DHT22;41951;49.022;12.066;2023-04-24T09:31:58;12.90;99.90
56076;DHT22;41951;49.022;12.066;2023-04-24T09:34:26;13.20;99.90
56076;DHT22;41951;49.022;12.066;2023-04-24T09:36:53;12.80;99.90
56076;DHT22;41951;49.022;12.066;2023-04-24T09:39:19;12.90;99.90
56076;DHT22;41951;49.022;12.066;2023-04-24T09:41:55;12.80;99.90
56076;DHT22;41951;49.022;12.066;2023-04-24T09:44:27;12.90;99.90
56076;DHT22;41951;49.022;12.066;2023-04-24T09:46:55;12.90;99.90
56076;DHT22;41951;49.022;12.066;2023-04-24T09:49:27;13.00;99.90
56076;DHT22;41951;49.022;12.066;2023-04-24T09:52:07;13.10;99.90
56076;DHT22;41951;49.022;12.066;2023-04-24T09:54:33;13.10;99.90
56076;DHT22;41951;49.022;12.066;2023-04-24T09:56:59;13.30;99.90
56076;DHT22;41951;49.022;12.066;2023-04-24T09:59:25;13.30;99.90
56076;DHT22;41951;49.022;12.066;2023-04-24T10:01:51;13.30;99.90
56076;DHT22;41951;49.022;12.066;2023-04-24T10:04:22;13.40;99.90
56076;DHT22;41951;49.022;12.066;2023-04-24T10:06:50;13.40;99.90
56076;DHT22;41951;49.022;12.066;2023-04-24T10:09:20;13.30;99.90
56076;DHT22;41951;49.022;12.066;2023-04-24T10:11:48;13.20;99.90
56076;DHT22;41951;49.022;12.066;2023-04-24T10:14:17;13.10;99.90
56076;DHT22;41951;49.022;12.066;2023-04-24T10:16:44;13.00;99.90
56076;DHT22;41951;49.022;12.066;2023-04-24T10:19:10;12.90;99.90
56076;DHT22;41951;49.022;12.066;2023-04-24T10:21:40;12.90;99.90
56076;DHT22;41951;49.022;12.066;2023-04-24T10:24:08;12.90;99.90
56076;DHT22;41951;49.022;12.066;2023-04-24T10:26:34;12.90;99.90
56076;DHT22;41951;49.022;12.066;2023-04-24T10:29:01;12.90;99.90
56076;DHT22;41951;49.022;12.066;2023-04-24T10:31:27;12.80;99.90
56076;DHT22;41951;49.022;12.066;2023-04-24T10:33:56;12.80;99.90
56076;DHT22;41951;49.022;12.066;2023-04-24T10:36:24;12.80;99.90
56076;DHT22;41951;49.022;12.066;2023-04-24T10:38:52;12.80;99.90
56076;DHT22;41951;49.022;12.066;2023-04-24T10:41:20;12.80;99.90
56076;DHT22;41951;49.022;12.066;2023-04-24T10:43:48;12.70;99.90
56076;DHT22;41951;49.022;12.066;2023-04-24T10:46:30;12.90;99.90
56076;DHT22;41951;49.022;12.066;2023-04-24T10:48:56;12.90;99.90
56076;DHT22;41951;49.022;12.066;2023-04-24T10:51:24;12.90;99.90
56076;DHT22;41951;49.022;12.066;2023-04-24T10:54:22;13.00;99.90
56076;DHT22;41951;49.022;12.066;2023-04-24T10:56:48;13.00;99.90
56076;DHT22;41951;49.022;12.066;2023-04-24T10:59:24;13.10;99.90
56076;DHT22;41951;49.022;12.066;2023-04-24T11:01:55;13.10;99.90
56076;DHT22;41951;49.022;12.066;2023-04-24T11:04:31;13.20;99.90
56076;DHT22;41951;49.022;12.066;2023-04-24T11:06:57;13.20;99.90
56076;DHT22;41951;49.022;12.066;2023-04-24T11:09:27;13.10;99.90
56076;DHT22;41951;49.022;12.066;2023-04-24T11:12:06;13.10;99.90
56076;DHT22;41951;49.022;12.066;2023-04-24T11:17:35;13.10;99.90
56076;DHT22;41951;49.022;12.066;2023-04-24T11:20:10;13.30;99.90
56076;DHT22;41951;49.022;12.066;2023-04-24T11:22:38;13.20;99.90
56076;DHT22;41951;49.022;12.066;2023-04-24T11:25:08;13.30;99.90
56076;DHT22;41951;49.022;12.066;2023-04-24T11:27:41;13.30;99.90
56076;DHT22;41951;49.022;12.066;2023-04-24T11:30:08;13.10;99.90
56076;DHT22;41951;49.022;12.066;2023-04-24T11:35:19;12.80;99.90
56076;DHT22;41951;49.022;12.066;2023-04-24T11:37:48;12.50;99.90
56076;DHT22;41951;49.022;12.066;2023-04-24T11:40:18;12.30;99.90
56076;DHT22;41951;49.022;12.066;2023-04-24T11:42:50;12.20;99.90
56076;DHT22;41951;49.022;12.066;2023-04-24T11:45:23;12.10;99.90
56076;DHT22;41951;49.022;12.066;2023-04-24T11:47:49;12.00;99.90
56076;DHT22;41951;49.022;12.066;2023-04-24T11:50:17;12.10;99.90
56076;DHT22;41951;49.022;12.066;2023-04-24T11:52:46;12.30;99.90
56076;DHT22;41951;49.022;12.066;2023-04-24T11:57:43;12.70;99.90
56076;DHT22;41951;49.022;12.066;2023-04-24T12:02:41;13.30;99.90
56076;DHT22;41951;49.022;12.066;2023-04-24T12:05:07;13.60;99.90
56076;DHT22;41951;49.022;12.066;2023-04-24T12:07:40;13.60;99.90
56076;DHT22;41951;49.022;12.066;2023-04-24T12:10:08;13.70;99.90
56076;DHT22;41951;49.022;12.066;2023-04-24T12:12:34;13.90;99.90
56076;DHT22;41951;49.022;12.066;2023-04-24T12:15:01;14.10;99.90
56076;DHT22;41951;49.022;12.066;2023-04-24T12:17:32;14.20;99.90
56076;DHT22;41951;49.022;12.066;2023-04-24T12:20:03;14.30;99.90
56076;DHT22;41951;49.022;12.066;2023-04-24T12:22:53;14.10;99.90
56076;DHT22;41951;49.022;12.066;2023-04-24T12:25:21;13.90;99.90
56076;DHT22;41951;49.022;12.066;2023-04-24T12:27:53;13.70;99.90
56076;DHT22;41951;49.022;12.066;2023-04-24T12:30:19;13.70;99.90
56076;DHT22;41951;49.022;12.066;2023-04-24T12:32:49;13.70;99.90
56076;DHT22;41951;49.022;12.066;2023-04-24T12:35:22;13.60;99.90
56076;DHT22;41951;49.022;12.066;2023-04-24T12:37:48;13.70;99.90
56076;DHT22;41951;49.022;12.066;2023-04-24T12:40:15;13.80;99.90
56076;DHT22;41951;49.022;12.066;2023-04-24T12:42:44;14.10;99.90
56076;DHT22;41951;49.022;12.066;2023-04-24T12:45:10;14.70;99.90
56076;DHT22;41951;49.022;12.066;2023-04-24T12:47:38;14.90;99.90
56076;DHT22;41951;49.022;12.066;2023-04-24T12:50:04;14.80;99.90
56076;DHT22;41951;49.022;12.066;2023-04-24T12:52:31;14.70;99.90
56076;DHT22;41951;49.022;12.066;2023-04-24T12:55:00;14.60;99.90
56076;DHT22;41951;49.022;12.066;2023-04-24T12:57:27;15.00;99.90
56076;DHT22;41951;49.022;12.066;2023-04-24T12:59:58;15.10;99.90
56076;DHT22;41951;49.022;12.066;2023-04-24T13:02:25;14.90;99.90
56076;DHT22;41951;49.022;12.066;2023-04-24T13:04:52;14.80;99.90
56076;DHT22;41951;49.022;12.066;2023-04-24T13:07:19;14.40;99.90
56076;DHT22;41951;49.022;12.066;2023-04-24T13:09:45;14.00;99.90
56076;DHT22;41951;49.022;12.066;2023-04-24T13:12:11;13.80;99.90
56076;DHT22;41951;49.022;12.066;2023-04-24T13:14:38;13.70;99.90
56076;DHT22;41951;49.022;12.066;2023-04-24T13:17:04;13.50;99.90
56076;DHT22;41951;49.022;12.066;2023-04-24T13:19:30;13.50;99.90
56076;DHT22;41951;49.022;12.066;2023-04-24T13:22:01;13.50;99.90
56076;DHT22;41951;49.022;12.066;2023-04-24T13:24:26;13.60;99.90
56076;DHT22;41951;49.022;12.066;2023-04-24T13:26:52;13.80;99.90
56076;DHT22;41951;49.022;12.066;2023-04-24T13:29:19;14.20;99.90
56076;DHT22;41951;49.022;12.066;2023-04-24T13:31:46;14.50;99.90
56076;DHT22;41951;49.022;12.066;2023-04-24T13:34:12;14.40;99.90
56076;DHT22;41951;49.022;12.066;2023-04-24T13:36:38;14.30;99.90
56076;DHT22;41951;49.022;12.066;2023-04-24T13:39:05;14.10;99.90
56076;DHT22;41951;49.022;12.066;2023-04-24T13:41:32;14.30;99.90
56076;DHT22;41951;49.022;12.066;2023-04-24T13:43:58;14.30;99.90
56076;DHT22;41951;49.022;12.066;2023-04-24T13:46:24;14.30;99.90
56076;DHT22;41951;49.022;12.066;2023-04-24T13:48:49;14.50;99.60
56076;DHT22;41951;49.022;12.066;2023-04-24T13:51:15;14.60;99.40
56076;DHT22;41951;49.022;12.066;2023-04-24T13:53:41;14.60;98.70
56076;DHT22;41951;49.022;12.066;2023-04-24T13:56:06;14.30;98.30
56076;DHT22;41951;49.022;12.066;2023-04-24T13:58:33;14.10;98.10
56076;DHT22;41951;49.022;12.066;2023-04-24T14:00:58;14.00;98.30
56076;DHT22;41951;49.022;12.066;2023-04-24T14:03:24;13.80;98.90
56076;DHT22;41951;49.022;12.066;2023-04-24T14:05:49;13.80;99.50
56076;DHT22;41951;49.022;12.066;2023-04-24T14:08:15;13.70;99.60
56076;DHT22;41951;49.022;12.066;2023-04-24T14:10:42;13.70;99.90
56076;DHT22;41951;49.022;12.066;2023-04-24T14:13:07;13.70;99.90
56076;DHT22;41951;49.022;12.066;2023-04-24T14:15:35;13.50;99.90
56076;DHT22;41951;49.022;12.066;2023-04-24T14:18:01;13.30;99.90
56076;DHT22;41951;49.022;12.066;2023-04-24T14:20:26;13.30;99.90
56076;DHT22;41951;49.022;12.066;2023-04-24T14:22:52;13.10;99.90
56076;DHT22;41951;49.022;12.066;2023-04-24T14:25:18;13.00;99.90
56076;DHT22;41951;49.022;12.066;2023-04-24T14:27:44;13.00;99.90
56076;DHT22;41951;49.022;12.066;2023-04-24T14:30:12;12.80;99.90
56076;DHT22;41951;49.022;12.066;2023-04-24T14:32:38;12.90;99.90
56076;DHT22;41951;49.022;12.066;2023-04-24T14:35:05;13.00;99.90
56076;DHT22;41951;49.022;12.066;2023-04-24T14:37:31;13.10;99.90
56076;DHT22;41951;49.022;12.066;2023-04-24T14:39:57;13.00;99.90
56076;DHT22;41951;49.022;12.066;2023-04-24T14:42:23;13.00;99.90
56076;DHT22;41951;49.022;12.066;2023-04-24T14:44:48;12.90;99.90
56076;DHT22;41951;49.022;12.066;2023-04-24T14:47:14;12.80;99.90
56076;DHT22;41951;49.022;12.066;2023-04-24T14:49:40;12.70;99.90
56076;DHT22;41951;49.022;12.066;2023-04-24T14:52:05;12.50;99.90
56076;DHT22;41951;49.022;12.066;2023-04-24T14:54:31;12.50;99.90
56076;DHT22;41951;49.022;12.066;2023-04-24T14:56:57;12.50;99.90
56076;DHT22;41951;49.022;12.066;2023-04-24T14:59:22;12.60;99.90
56076;DHT22;41951;49.022;12.066;2023-04-24T15:01:48;12.70;99.90
56076;DHT22;41951;49.022;12.066;2023-04-24T15:04:15;12.60;99.90
56076;DHT22;41951;49.022;12.066;2023-04-24T15:06:40;12.60;99.90
56076;DHT22;41951;49.022;12.066;2023-04-24T15:09:06;12.80;99.90
56076;DHT22;41951;49.022;12.066;2023-04-24T15:11:32;13.20;99.90
56076;DHT22;41951;49.022;12.066;2023-04-24T15:13:57;13.10;99.90
56076;DHT22;41951;49.022;12.066;2023-04-24T15:16:23;13.10;99.90
56076;DHT22;41951;49.022;12.066;2023-04-24T15:18:49;13.10;99.90
56076;DHT22;41951;49.022;12.066;2023-04-24T15:21:15;13.00;99.90
56076;DHT22;41951;49.022;12.066;2023-04-24T15:23:40;13.00;99.90